Time;durP1;ratioP1;P1;durP2;ratioP2;P2;SDS_P1;SDS_P2;PMS_P1;PMS_P2;Temp;Humidity;BMP_temperature;BMP_pressure;BME280_temperature;BME280_humidity;BME280_pressure;Samples;Min_cycle;Max_cycle;Signal;HPM_P1;HPM_P2
2022/07/30 00:00:48;;;;;;;0.70;0.70;;;16.10;99.90;;;;;;5029193;28;20444;-72
2022/07/30 00:03:15;;;;;;;0.90;0.65;;;16.10;99.90;;;;;;5033912;28;20555;-72
2022/07/30 00:05:42;;;;;;;0.65;0.65;;;16.00;99.90;;;;;;5035760;28;20435;-72
2022/07/30 00:08:08;;;;;;;0.80;0.80;;;15.90;99.90;;;;;;5041343;28;20519;-72
2022/07/30 00:10:35;;;;;;;1.05;1.05;;;15.80;99.90;;;;;;5030508;28;20973;-72
2022/07/30 00:13:05;;;;;;;0.90;0.90;;;15.70;99.90;;;;;;5017283;28;20513;-72
2022/07/30 00:15:32;;;;;;;1.20;0.63;;;15.70;99.90;;;;;;5038300;28;20458;-72
2022/07/30 00:17:59;;;;;;;0.90;0.90;;;15.60;99.90;;;;;;5030093;28;20484;-72
2022/07/30 00:20:26;;;;;;;0.82;0.82;;;15.60;99.90;;;;;;5021801;28;20438;-72
2022/07/30 00:22:53;;;;;;;0.98;0.98;;;15.70;99.90;;;;;;5030365;28;20849;-71
2022/07/30 00:25:20;;;;;;;0.80;0.80;;;15.70;99.90;;;;;;5027297;28;20431;-72
2022/07/30 00:27:47;;;;;;;0.70;0.70;;;15.70;99.90;;;;;;5021592;28;20429;-72
2022/07/30 00:30:14;;;;;;;0.80;0.80;;;15.70;99.90;;;;;;5023886;28;20541;-72
2022/07/30 00:32:41;;;;;;;1.20;1.20;;;15.70;99.90;;;;;;5036750;28;20435;-72
2022/07/30 00:35:08;;;;;;;1.27;1.17;;;15.70;99.90;;;;;;5029052;28;20497;-72
2022/07/30 00:37:38;;;;;;;0.73;0.73;;;15.60;99.90;;;;;;5032336;28;20428;-71
2022/07/30 00:40:07;;;;;;;1.27;1.08;;;15.60;99.90;;;;;;5025276;28;20439;-72
2022/07/30 00:42:45;;;;;;;1.00;1.00;;;15.60;99.90;;;;;;5029754;28;20451;-72
2022/07/30 00:45:16;;;;;;;0.75;0.75;;;15.60;99.90;;;;;;5037920;28;20467;-72
2022/07/30 00:47:43;;;;;;;1.10;1.10;;;15.50;99.90;;;;;;5029572;28;20848;-72
2022/07/30 00:50:12;;;;;;;0.90;0.90;;;15.40;99.90;;;;;;5037835;28;20436;-72
2022/07/30 00:52:40;;;;;;;2.50;0.85;;;15.40;99.90;;;;;;5035350;28;21043;-72
2022/07/30 00:55:10;;;;;;;0.90;0.90;;;15.30;99.90;;;;;;5026894;28;20917;-72
2022/07/30 00:57:37;;;;;;;0.82;0.82;;;15.30;99.90;;;;;;5038648;28;20520;-72
2022/07/30 01:00:11;;;;;;;0.70;0.70;;;15.40;99.90;;;;;;5041701;28;20509;-72
2022/07/30 01:02:39;;;;;;;1.00;1.00;;;15.50;99.90;;;;;;5020952;28;20932;-71
2022/07/30 01:05:06;;;;;;;0.80;0.80;;;15.50;99.90;;;;;;5029489;28;20457;-72
2022/07/30 01:07:33;;;;;;;1.00;1.00;;;15.40;99.90;;;;;;5030398;28;20438;-72
2022/07/30 01:10:01;;;;;;;0.60;0.60;;;15.40;99.90;;;;;;5053361;28;20909;-72
2022/07/30 01:12:28;;;;;;;0.98;0.98;;;15.40;99.90;;;;;;5052396;28;20899;-72
2022/07/30 01:14:57;;;;;;;1.10;1.10;;;15.40;99.90;;;;;;5031999;28;20431;-72
2022/07/30 01:17:24;;;;;;;0.63;0.60;;;15.40;99.90;;;;;;5016882;28;20507;-72
2022/07/30 01:19:57;;;;;;;1.10;0.80;;;15.40;99.90;;;;;;5022912;28;21074;-72
2022/07/30 01:22:29;;;;;;;0.60;0.60;;;15.40;99.90;;;;;;5030487;28;20427;-71
2022/07/30 01:25:09;;;;;;;0.73;0.73;;;15.40;99.90;;;;;;5024798;28;20494;-71
2022/07/30 01:27:58;;;;;;;0.90;0.90;;;15.40;99.90;;;;;;5036494;28;20461;-71
2022/07/30 01:30:31;;;;;;;0.70;0.70;;;15.30;99.90;;;;;;5032636;28;20488;-71
2022/07/30 01:33:01;;;;;;;1.00;1.00;;;15.20;99.90;;;;;;5017454;28;20435;-71
2022/07/30 01:35:31;;;;;;;1.20;0.63;;;15.20;99.90;;;;;;5022836;28;20926;-70
2022/07/30 01:38:00;;;;;;;0.75;0.75;;;15.10;99.90;;;;;;5025849;28;20560;-71
2022/07/30 01:40:28;;;;;;;0.93;0.93;;;15.10;99.90;;;;;;5026727;28;20431;-70
2022/07/30 01:42:57;;;;;;;1.15;0.95;;;15.10;99.90;;;;;;5020337;28;20430;-70
2022/07/30 01:45:29;;;;;;;1.02;1.02;;;15.00;99.90;;;;;;5028207;28;20440;-71
2022/07/30 01:48:02;;;;;;;1.20;1.20;;;14.90;99.90;;;;;;5030724;28;20429;-71
2022/07/30 01:50:30;;;;;;;0.90;0.90;;;14.90;99.90;;;;;;5028668;28;20428;-71
2022/07/30 01:52:59;;;;;;;0.68;0.68;;;14.80;99.90;;;;;;5027699;28;20519;-71
2022/07/30 01:55:35;;;;;;;1.02;1.02;;;14.80;99.90;;;;;;5017545;28;20433;-71
2022/07/30 01:58:04;;;;;;;0.90;0.90;;;14.70;99.90;;;;;;5035804;28;20816;-71
2022/07/30 02:00:35;;;;;;;0.73;0.73;;;14.70;99.90;;;;;;5035513;28;20433;-71
2022/07/30 02:03:03;;;;;;;1.05;1.05;;;14.60;99.90;;;;;;5029219;28;20517;-71
2022/07/30 02:05:37;;;;;;;0.85;0.85;;;14.60;99.90;;;;;;5031669;28;20434;-71
2022/07/30 02:08:15;;;;;;;0.70;0.70;;;14.60;99.90;;;;;;5046258;28;20435;-70
2022/07/30 02:10:47;;;;;;;1.00;1.00;;;14.60;99.90;;;;;;5036685;28;20443;-70
2022/07/30 02:13:20;;;;;;;1.10;1.10;;;14.50;99.90;;;;;;5027217;28;20490;-70
2022/07/30 02:16:26;;;;;;;0.60;0.60;;;14.50;99.90;;;;;;5022857;28;20965;-71
2022/07/30 02:19:06;;;;;;;1.00;1.00;;;14.50;99.90;;;;;;5028571;28;20438;-71
2022/07/30 02:21:37;;;;;;;1.00;0.98;;;14.60;99.90;;;;;;5006178;28;20516;-71
2022/07/30 02:24:10;;;;;;;0.77;0.77;;;14.60;99.90;;;;;;5022630;28;20979;-72
2022/07/30 02:26:39;;;;;;;0.90;0.90;;;14.60;99.90;;;;;;5037863;28;20537;-72
2022/07/30 02:29:07;;;;;;;0.60;0.60;;;14.60;99.90;;;;;;5042499;28;20429;-72
2022/07/30 02:31:39;;;;;;;0.70;0.70;;;14.70;99.90;;;;;;5040821;28;21000;-71
2022/07/30 02:34:07;;;;;;;0.80;0.80;;;14.70;99.90;;;;;;5038558;28;20454;-71
2022/07/30 02:36:35;;;;;;;0.70;0.70;;;14.60;99.90;;;;;;5039366;28;20443;-71
2022/07/30 02:39:03;;;;;;;0.98;0.98;;;14.60;99.90;;;;;;5025958;28;20437;-71
2022/07/30 02:41:31;;;;;;;0.75;0.75;;;14.60;99.90;;;;;;5036338;28;20432;-71
2022/07/30 02:44:00;;;;;;;0.70;0.70;;;14.50;99.90;;;;;;5041796;28;20799;-71
2022/07/30 02:46:28;;;;;;;0.70;0.70;;;14.50;99.90;;;;;;5034927;28;20469;-71
2022/07/30 02:48:57;;;;;;;1.00;1.00;;;14.40;99.90;;;;;;5040870;28;20437;-71
2022/07/30 02:51:25;;;;;;;0.77;0.77;;;14.40;99.90;;;;;;5038371;28;20438;-71
2022/07/30 02:53:54;;;;;;;1.00;1.00;;;14.40;99.90;;;;;;5031836;28;20433;-71
2022/07/30 02:56:22;;;;;;;0.93;0.93;;;14.30;99.90;;;;;;5034246;28;20849;-71
2022/07/30 02:58:51;;;;;;;0.68;0.68;;;14.20;99.90;;;;;;5038540;28;20514;-71
2022/07/30 03:01:21;;;;;;;0.90;0.90;;;14.10;99.90;;;;;;5035922;28;20462;-71
2022/07/30 03:03:50;;;;;;;0.80;0.80;;;14.10;99.90;;;;;;5027773;28;20507;-71
2022/07/30 03:06:22;;;;;;;0.80;0.80;;;14.10;99.90;;;;;;5029519;28;20496;-71
2022/07/30 03:08:53;;;;;;;1.00;0.95;;;14.00;99.90;;;;;;5040168;28;20785;-71
2022/07/30 03:11:22;;;;;;;0.55;0.55;;;13.90;99.90;;;;;;5034666;28;20470;-71
2022/07/30 03:13:51;;;;;;;0.65;0.65;;;13.90;99.90;;;;;;5035605;28;20494;-71
2022/07/30 03:16:20;;;;;;;0.88;0.88;;;13.90;99.90;;;;;;5025106;28;20439;-71
2022/07/30 03:18:51;;;;;;;0.90;0.90;;;13.90;99.90;;;;;;5036357;28;20509;-71
2022/07/30 03:21:20;;;;;;;1.15;1.08;;;14.00;99.90;;;;;;5030380;28;20455;-71
2022/07/30 03:23:49;;;;;;;0.95;0.95;;;13.90;99.90;;;;;;5036481;28;20505;-71
2022/07/30 03:26:21;;;;;;;0.88;0.88;;;13.90;99.90;;;;;;5039460;28;20430;-70
2022/07/30 03:28:48;;;;;;;1.20;0.80;;;13.90;99.90;;;;;;5041589;28;20534;-71
2022/07/30 03:31:16;;;;;;;0.70;0.70;;;13.80;99.90;;;;;;5037813;28;20878;-71
2022/07/30 03:33:44;;;;;;;0.80;0.80;;;13.80;99.90;;;;;;5025531;28;20970;-71
2022/07/30 03:36:14;;;;;;;0.77;0.77;;;13.70;99.90;;;;;;5031005;28;20437;-71
2022/07/30 03:38:42;;;;;;;0.75;0.75;;;13.70;99.90;;;;;;5038800;28;20434;-71
2022/07/30 03:41:10;;;;;;;0.90;0.90;;;13.70;99.90;;;;;;5020372;28;20831;-71
2022/07/30 03:43:37;;;;;;;1.10;1.00;;;13.90;99.90;;;;;;5010618;28;20432;-71
2022/07/30 03:46:06;;;;;;;0.60;0.60;;;14.00;99.90;;;;;;5019012;28;20467;-71
2022/07/30 03:48:34;;;;;;;0.83;0.83;;;14.10;99.90;;;;;;5021789;28;20496;-71
2022/07/30 03:51:03;;;;;;;0.80;0.80;;;14.00;99.90;;;;;;5028736;28;20442;-71
2022/07/30 03:53:30;;;;;;;1.00;1.00;;;14.00;99.90;;;;;;5033282;28;20517;-71
2022/07/30 03:55:58;;;;;;;0.70;0.70;;;14.00;99.90;;;;;;5031871;28;20441;-71
2022/07/30 03:58:25;;;;;;;0.70;0.70;;;14.00;99.90;;;;;;5034417;28;20433;-71
2022/07/30 04:00:57;;;;;;;1.35;0.90;;;13.90;99.90;;;;;;5025695;28;20447;-70
2022/07/30 04:03:29;;;;;;;1.25;1.15;;;13.90;99.90;;;;;;5027998;28;20921;-71
2022/07/30 04:05:57;;;;;;;0.70;0.70;;;13.90;99.90;;;;;;5030983;28;20465;-70
2022/07/30 04:08:24;;;;;;;0.40;0.40;;;13.90;99.90;;;;;;5029459;28;20430;-71
2022/07/30 04:10:56;;;;;;;0.70;0.70;;;13.90;99.90;;;;;;5027199;28;20530;-71
2022/07/30 04:13:23;;;;;;;0.57;0.57;;;13.90;99.90;;;;;;5040070;28;20886;-71
2022/07/30 04:15:55;;;;;;;0.52;0.50;;;13.80;99.90;;;;;;5035471;28;20426;-71
2022/07/30 04:18:47;;;;;;;0.50;0.50;;;13.80;99.90;;;;;;5019233;28;20994;-71
2022/07/30 04:21:19;;;;;;;0.57;0.57;;;13.80;99.90;;;;;;5019901;28;21093;-71
2022/07/30 04:23:48;;;;;;;0.60;0.60;;;13.80;99.90;;;;;;5045306;28;20429;-71
2022/07/30 04:26:33;;;;;;;0.63;0.63;;;13.80;99.90;;;;;;5045973;28;20433;-71
2022/07/30 04:29:01;;;;;;;0.40;0.40;;;13.80;99.90;;;;;;5015205;28;20464;-71
2022/07/30 04:31:28;;;;;;;0.35;0.35;;;13.90;99.90;;;;;;5013577;28;20465;-70
2022/07/30 04:33:55;;;;;;;0.85;0.73;;;13.90;99.90;;;;;;5014751;28;20444;-71
2022/07/30 04:36:29;;;;;;;0.70;0.70;;;13.90;99.90;;;;;;5028151;28;20439;-71
2022/07/30 04:38:57;;;;;;;0.47;0.47;;;13.90;99.90;;;;;;5030198;28;20426;-71
2022/07/30 04:41:25;;;;;;;0.52;0.52;;;13.80;99.90;;;;;;5028174;28;21102;-71
2022/07/30 04:43:52;;;;;;;0.70;0.70;;;13.80;99.90;;;;;;5028467;28;20434;-71
2022/07/30 04:46:18;;;;;;;0.40;0.40;;;13.80;99.90;;;;;;5031556;28;20512;-71
2022/07/30 04:48:50;;;;;;;0.60;0.60;;;13.90;99.90;;;;;;5032450;28;20434;-71
2022/07/30 04:51:24;;;;;;;0.50;0.50;;;14.30;99.90;;;;;;5033594;28;20522;-71
2022/07/30 04:53:52;;;;;;;0.47;0.47;;;14.90;99.90;;;;;;5020662;28;20437;-72
2022/07/30 04:56:20;;;;;;;0.60;0.60;;;15.40;99.90;;;;;;5020290;28;20463;-69
2022/07/30 04:58:49;;;;;;;0.68;0.68;;;15.70;99.90;;;;;;5025391;28;20443;-69
2022/07/30 05:01:21;;;;;;;0.90;0.90;;;16.20;99.90;;;;;;5020889;28;20449;-70
2022/07/30 05:03:51;;;;;;;0.80;0.80;;;16.50;99.90;;;;;;5023523;28;20430;-70
2022/07/30 05:06:20;;;;;;;1.00;1.00;;;16.60;99.90;;;;;;5029262;28;20591;-71
2022/07/30 05:08:47;;;;;;;0.98;0.98;;;17.00;99.90;;;;;;5017039;28;20438;-71
2022/07/30 05:11:15;;;;;;;1.60;1.58;;;17.30;99.90;;;;;;5009069;28;20431;-71
2022/07/30 05:13:44;;;;;;;1.58;1.48;;;17.60;99.90;;;;;;5020961;28;20493;-72
2022/07/30 05:16:12;;;;;;;1.15;1.15;;;17.80;99.90;;;;;;5028150;28;20828;-71
2022/07/30 05:18:42;;;;;;;1.33;1.27;;;18.20;99.90;;;;;;5022361;28;20546;-72
2022/07/30 05:21:09;;;;;;;1.63;1.52;;;18.60;99.90;;;;;;5024770;28;20462;-73
2022/07/30 05:23:36;;;;;;;1.20;1.20;;;18.90;99.90;;;;;;5024909;28;20537;-72
2022/07/30 05:26:03;;;;;;;1.83;1.73;;;19.30;99.90;;;;;;5017486;28;20534;-72
2022/07/30 05:28:30;;;;;;;1.48;1.38;;;19.50;99.90;;;;;;5020534;28;20463;-73
2022/07/30 05:30:56;;;;;;;1.80;1.70;;;19.90;99.90;;;;;;5030152;28;21096;-73
2022/07/30 05:33:24;;;;;;;1.60;1.50;;;20.20;99.90;;;;;;5016877;28;20440;-73
2022/07/30 05:36:11;;;;;;;1.77;1.58;;;20.40;99.90;;;;;;5022243;28;20500;-73
2022/07/30 05:38:38;;;;;;;1.87;1.77;;;20.90;99.90;;;;;;5032696;28;21047;-73
2022/07/30 05:41:04;;;;;;;1.42;1.42;;;21.40;99.90;;;;;;5021642;28;20446;-75
2022/07/30 05:43:51;;;;;;;1.55;1.45;;;21.70;99.90;;;;;;5022918;28;20423;-73
2022/07/30 05:46:22;;;;;;;1.40;1.30;;;22.10;99.90;;;;;;5026234;28;20936;-73
2022/07/30 05:48:49;;;;;;;1.27;1.27;;;22.50;99.90;;;;;;5012489;28;20436;-72
2022/07/30 05:51:18;;;;;;;1.30;1.30;;;22.40;99.90;;;;;;5022960;28;20470;-72
2022/07/30 05:53:45;;;;;;;1.20;1.20;;;22.70;99.90;;;;;;5024896;28;20457;-72
2022/07/30 05:56:11;;;;;;;1.33;1.33;;;22.90;99.90;;;;;;5026194;28;20437;-72
2022/07/30 05:58:41;;;;;;;1.23;1.23;;;23.20;99.90;;;;;;5019726;28;20883;-71
2022/07/30 06:01:08;;;;;;;1.23;1.23;;;23.30;99.90;;;;;;5018851;28;20481;-71
2022/07/30 06:03:35;;;;;;;1.23;1.13;;;23.60;99.90;;;;;;5028232;28;21216;-71
2022/07/30 06:06:09;;;;;;;1.20;1.20;;;23.50;99.90;;;;;;5028582;28;20493;-71
2022/07/30 06:08:36;;;;;;;1.02;1.02;;;23.70;99.90;;;;;;5020014;28;20604;-70
2022/07/30 06:11:03;;;;;;;1.10;1.10;;;23.80;99.90;;;;;;5024268;28;21003;-70
2022/07/30 06:13:30;;;;;;;1.10;1.10;;;24.20;99.90;;;;;;5023525;28;20430;-70
2022/07/30 06:15:56;;;;;;;1.30;1.20;;;24.60;99.90;;;;;;5022540;28;20522;-70
2022/07/30 06:18:23;;;;;;;1.30;1.20;;;24.80;99.90;;;;;;5022498;28;20513;-70
2022/07/30 06:20:59;;;;;;;1.38;1.27;;;25.10;99.90;;;;;;5029276;28;20442;-70
2022/07/30 06:23:26;;;;;;;1.10;1.10;;;25.10;99.90;;;;;;5021793;28;20430;-70
2022/07/30 06:25:53;;;;;;;1.70;1.20;;;25.40;99.90;;;;;;5025005;28;20427;-70
2022/07/30 06:28:20;;;;;;;1.40;1.30;;;25.70;99.90;;;;;;5021491;28;20433;-70
2022/07/30 06:31:02;;;;;;;0.88;0.88;;;25.90;99.90;;;;;;5025449;28;20743;-70
2022/07/30 06:33:30;;;;;;;1.02;1.02;;;26.20;99.90;;;;;;5019406;28;20437;-69
2022/07/30 06:35:57;;;;;;;1.05;1.05;;;26.40;99.90;;;;;;5020760;28;20413;-70
2022/07/30 06:38:23;;;;;;;1.13;1.13;;;26.80;99.90;;;;;;5026878;28;21014;-70
2022/07/30 06:40:50;;;;;;;1.58;1.20;;;27.10;99.90;;;;;;5022857;28;20803;-70
2022/07/30 06:43:18;;;;;;;1.10;1.10;;;27.00;99.90;;;;;;5020891;28;20493;-71
2022/07/30 06:45:45;;;;;;;1.00;1.00;;;26.70;99.90;;;;;;5019182;28;20839;-71
2022/07/30 06:48:12;;;;;;;0.95;0.95;;;26.50;99.90;;;;;;5022159;28;20538;-70
2022/07/30 06:50:40;;;;;;;1.08;1.08;;;26.40;99.90;;;;;;5021965;28;20769;-71
2022/07/30 06:53:07;;;;;;;1.30;1.00;;;26.40;99.90;;;;;;5020959;28;20515;-72
2022/07/30 06:55:34;;;;;;;1.63;1.33;;;26.30;99.90;;;;;;5024451;28;20441;-72
2022/07/30 06:58:01;;;;;;;1.00;1.00;;;25.80;99.90;;;;;;5026660;28;20448;-71
2022/07/30 07:00:27;;;;;;;0.93;0.93;;;26.10;99.90;;;;;;5020529;28;20431;-71
2022/07/30 07:02:54;;;;;;;1.10;1.10;;;26.20;99.90;;;;;;5024190;28;21150;-71
2022/07/30 07:05:22;;;;;;;1.23;1.23;;;26.10;99.90;;;;;;5022063;28;20510;-71
2022/07/30 07:07:49;;;;;;;1.42;1.33;;;25.70;99.90;;;;;;5019912;28;20432;-72
2022/07/30 07:10:26;;;;;;;1.23;1.23;;;25.40;99.90;;;;;;5029520;28;20534;-71
2022/07/30 07:12:52;;;;;;;2.22;1.20;;;25.20;99.90;;;;;;5026037;28;20429;-71
2022/07/30 07:15:20;;;;;;;1.40;1.40;;;25.40;99.90;;;;;;5023435;28;20442;-72
2022/07/30 07:18:05;;;;;;;1.30;1.20;;;25.80;99.90;;;;;;5019930;28;20455;-72
2022/07/30 07:20:33;;;;;;;2.00;1.30;;;26.20;99.90;;;;;;5031698;28;20417;-73
2022/07/30 07:23:00;;;;;;;1.48;1.30;;;26.70;99.90;;;;;;5020700;28;20943;-74
2022/07/30 07:25:34;;;;;;;1.35;1.35;;;27.50;99.90;;;;;;5018897;28;20466;-73
2022/07/30 07:28:01;;;;;;;1.17;1.17;;;28.20;99.90;;;;;;5023528;28;20438;-73
2022/07/30 07:30:38;;;;;;;1.15;1.15;;;28.70;99.90;;;;;;5023725;28;20438;-73
2022/07/30 07:33:05;;;;;;;1.50;1.40;;;28.40;99.90;;;;;;5021675;28;21152;-73
2022/07/30 07:35:32;;;;;;;1.27;1.27;;;28.60;99.90;;;;;;5020431;28;20431;-74
2022/07/30 07:38:16;;;;;;;1.13;1.13;;;28.20;99.90;;;;;;5025445;28;20441;-73
2022/07/30 07:40:43;;;;;;;1.75;1.65;;;28.20;99.90;;;;;;5031550;28;20518;-74
2022/07/30 07:43:09;;;;;;;1.60;1.50;;;28.30;99.90;;;;;;5018958;28;21228;-74
2022/07/30 07:45:40;;;;;;;1.50;1.50;;;27.90;99.90;;;;;;5028292;28;20948;-73
2022/07/30 07:48:07;;;;;;;1.43;1.43;;;27.50;99.90;;;;;;5022041;28;21061;-72
2022/07/30 07:50:34;;;;;;;1.60;1.60;;;27.40;99.90;;;;;;5020750;28;21118;-73
2022/07/30 07:53:01;;;;;;;1.80;1.70;;;27.70;99.90;;;;;;5025148;28;20441;-73
2022/07/30 07:55:28;;;;;;;1.35;1.33;;;27.80;99.90;;;;;;5041144;28;20955;-75
2022/07/30 07:57:58;;;;;;;1.58;1.20;;;28.10;99.90;;;;;;5025655;28;20983;-74
2022/07/30 08:00:25;;;;;;;1.70;1.60;;;28.20;99.90;;;;;;5025203;28;20424;-73
2022/07/30 08:02:55;;;;;;;1.77;1.67;;;28.60;99.90;;;;;;5028658;28;20433;-73
2022/07/30 08:05:22;;;;;;;1.80;1.70;;;28.40;99.90;;;;;;5022829;28;20509;-75
2022/07/30 08:07:49;;;;;;;1.58;1.48;;;28.40;99.90;;;;;;5035962;28;20473;-76
2022/07/30 08:10:17;;;;;;;1.60;1.50;;;28.60;99.90;;;;;;5036736;28;20437;-73
2022/07/30 08:12:44;;;;;;;1.85;1.75;;;29.10;99.90;;;;;;5023617;28;20438;-73
2022/07/30 08:15:11;;;;;;;1.40;1.40;;;29.30;99.90;;;;;;5025803;28;21032;-73
2022/07/30 08:17:45;;;;;;;1.50;1.50;;;29.70;99.90;;;;;;5025629;28;20439;-74
2022/07/30 08:20:15;;;;;;;1.55;1.45;;;29.70;99.90;;;;;;5029519;28;20458;-76
2022/07/30 08:22:42;;;;;;;1.42;1.33;;;29.40;99.90;;;;;;5023671;28;20432;-73
2022/07/30 08:25:11;;;;;;;1.83;1.73;;;29.60;99.90;;;;;;5025043;28;20463;-74
2022/07/30 08:27:50;;;;;;;1.73;1.70;;;29.70;99.90;;;;;;5026379;28;21250;-74
2022/07/30 08:30:21;;;;;;;1.65;1.60;;;29.70;99.90;;;;;;5025255;28;20469;-74
2022/07/30 08:32:48;;;;;;;1.30;1.30;;;29.60;99.90;;;;;;5040278;28;20443;-74
2022/07/30 08:35:15;;;;;;;1.20;1.20;;;29.60;99.90;;;;;;5033243;28;20429;-76
2022/07/30 08:37:45;;;;;;;1.45;1.35;;;29.60;99.90;;;;;;5034337;28;20916;-74
2022/07/30 08:40:12;;;;;;;1.67;1.58;;;29.20;99.90;;;;;;5032288;28;20838;-74
2022/07/30 08:42:39;;;;;;;1.30;1.30;;;29.00;99.90;;;;;;5023983;28;20427;-76
2022/07/30 08:45:07;;;;;;;1.70;1.60;;;28.50;99.90;;;;;;5023324;28;20435;-76
2022/07/30 08:47:35;;;;;;;1.13;1.10;;;27.90;99.90;;;;;;5030676;28;20492;-76
2022/07/30 08:50:04;;;;;;;1.20;1.20;;;28.10;99.90;;;;;;5022488;28;20505;-74
2022/07/30 08:52:34;;;;;;;1.88;1.52;;;28.20;99.90;;;;;;5026126;28;20439;-77
2022/07/30 08:55:03;;;;;;;1.40;1.40;;;28.50;99.90;;;;;;5039915;28;20495;-76
2022/07/30 08:57:31;;;;;;;1.73;1.67;;;29.00;99.90;;;;;;5036264;28;20997;-75
2022/07/30 08:59:58;;;;;;;1.25;1.25;;;28.60;99.90;;;;;;5022879;28;20513;-74
2022/07/30 09:02:30;;;;;;;1.42;1.42;;;29.10;99.90;;;;;;5021511;28;20981;-73
2022/07/30 09:04:57;;;;;;;1.60;1.55;;;29.30;99.90;;;;;;5020558;28;20519;-74
2022/07/30 09:07:24;;;;;;;1.13;1.13;;;29.50;99.90;;;;;;5021387;28;20458;-74
2022/07/30 09:09:51;;;;;;;1.38;1.27;;;29.70;99.90;;;;;;5026275;28;20601;-74
2022/07/30 09:12:30;;;;;;;1.40;1.40;;;29.50;99.90;;;;;;5023585;28;20432;-74
2022/07/30 09:15:10;;;;;;;1.35;1.35;;;29.30;99.90;;;;;;5019058;28;20430;-76
2022/07/30 09:17:56;;;;;;;1.00;1.00;;;29.20;99.90;;;;;;5022650;28;20947;-72
2022/07/30 09:20:26;;;;;;;1.02;0.98;;;28.80;99.90;;;;;;5025875;28;20441;-75
2022/07/30 09:22:56;;;;;;;0.80;0.80;;;29.30;99.90;;;;;;5030863;28;20919;-75
2022/07/30 09:25:38;;;;;;;1.00;1.00;;;29.50;99.90;;;;;;5019295;28;21114;-74
2022/07/30 09:28:08;;;;;;;0.85;0.85;;;29.90;99.90;;;;;;5020393;28;20511;-75
2022/07/30 09:30:45;;;;;;;0.75;0.75;;;29.60;99.90;;;;;;5019085;28;20489;-74
2022/07/30 09:33:12;;;;;;;1.30;1.20;;;29.90;99.90;;;;;;5023620;28;20441;-76
2022/07/30 09:35:41;;;;;;;1.10;1.10;;;30.20;99.90;;;;;;5030665;28;20877;-75
2022/07/30 09:38:08;;;;;;;0.90;0.90;;;30.30;99.90;;;;;;5027516;28;20535;-74
2022/07/30 09:40:35;;;;;;;1.20;1.20;;;30.60;99.90;;;;;;5017281;28;20434;-75
2022/07/30 09:43:07;;;;;;;1.02;1.02;;;30.80;99.90;;;;;;5027407;28;20508;-75
2022/07/30 09:45:35;;;;;;;1.15;1.13;;;30.80;99.90;;;;;;5023980;28;20443;-76
2022/07/30 09:48:18;;;;;;;0.80;0.80;;;30.20;99.20;;;;;;5027762;28;20433;-74
2022/07/30 09:50:49;;;;;;;0.88;0.88;;;30.20;99.70;;;;;;5018332;28;20506;-75
2022/07/30 09:53:17;;;;;;;0.80;0.80;;;30.40;99.00;;;;;;5026492;28;20426;-75
2022/07/30 09:55:46;;;;;;;0.80;0.80;;;30.20;98.20;;;;;;5027219;28;20431;-76
2022/07/30 09:58:12;;;;;;;0.80;0.80;;;30.60;98.70;;;;;;5022656;28;21073;-72
2022/07/30 10:00:57;;;;;;;0.85;0.85;;;30.90;98.60;;;;;;5026031;28;20423;-74
2022/07/30 10:03:31;;;;;;;0.60;0.60;;;30.90;98.70;;;;;;5029725;28;20778;-77
2022/07/30 10:06:08;;;;;;;0.65;0.65;;;31.30;99.90;;;;;;5033065;28;20512;-75
2022/07/30 10:08:38;;;;;;;0.50;0.50;;;31.00;96.10;;;;;;5018610;28;20443;-76
2022/07/30 10:11:08;;;;;;;0.40;0.40;;;30.90;94.70;;;;;;5020967;28;20431;-76
2022/07/30 10:13:39;;;;;;;0.63;0.63;;;31.20;95.20;;;;;;5019715;28;20428;-75
2022/07/30 10:16:12;;;;;;;0.60;0.60;;;31.30;94.90;;;;;;5019293;28;20978;-75
2022/07/30 10:18:41;;;;;;;0.50;0.50;;;31.30;94.90;;;;;;5021699;28;20917;-74
2022/07/30 10:21:10;;;;;;;0.55;0.55;;;31.30;94.00;;;;;;5038237;28;20431;-74
2022/07/30 10:23:42;;;;;;;0.60;0.60;;;31.20;93.80;;;;;;5024798;28;20435;-72
2022/07/30 10:26:14;;;;;;;0.57;0.57;;;31.40;93.10;;;;;;5029479;28;20433;-75
2022/07/30 10:28:43;;;;;;;0.50;0.50;;;31.60;92.70;;;;;;5028967;28;20435;-74
2022/07/30 10:31:10;;;;;;;0.50;0.50;;;31.90;93.10;;;;;;5029368;28;20434;-73
2022/07/30 10:33:57;;;;;;;0.70;0.70;;;32.10;91.80;;;;;;5028294;28;20457;-74
2022/07/30 10:36:25;;;;;;;0.50;0.50;;;31.80;91.10;;;;;;5034738;28;20443;-74
2022/07/30 10:38:55;;;;;;;0.57;0.57;;;31.60;90.50;;;;;;5019834;28;20953;-60
2022/07/30 10:41:46;;;;;;;0.50;0.50;;;31.50;89.30;;;;;;5014066;28;20971;-62
2022/07/30 10:44:23;;;;;;;0.30;0.30;;;31.50;88.70;;;;;;5029987;28;20432;-61
2022/07/30 10:47:05;;;;;;;0.50;0.50;;;31.50;90.00;;;;;;5038340;28;20552;-60
2022/07/30 10:49:34;;;;;;;0.53;0.53;;;31.40;90.50;;;;;;5018920;28;20530;-61
2022/07/30 10:52:09;;;;;;;0.50;0.50;;;31.00;90.40;;;;;;5024326;28;20438;-61
2022/07/30 10:54:44;;;;;;;0.47;0.47;;;31.10;92.10;;;;;;5032672;28;20429;-61
2022/07/30 10:57:14;;;;;;;0.60;0.60;;;31.20;90.90;;;;;;5023464;28;20921;-60
2022/07/30 10:59:54;;;;;;;0.40;0.40;;;31.30;90.90;;;;;;5024550;28;20442;-61
2022/07/30 11:02:23;;;;;;;0.50;0.50;;;31.60;91.00;;;;;;5047406;28;20428;-60
2022/07/30 11:05:22;;;;;;;0.68;0.68;;;31.90;90.30;;;;;;5022323;28;20432;-60
2022/07/30 11:08:31;;;;;;;0.50;0.50;;;31.60;91.00;;;;;;5027406;28;20760;-61
2022/07/30 11:11:04;;;;;;;0.80;0.70;;;31.50;91.10;;;;;;5038019;28;20460;-61
2022/07/30 11:13:50;;;;;;;0.70;0.70;;;31.40;91.30;;;;;;5021986;28;20896;-61
2022/07/30 11:16:21;;;;;;;0.67;0.67;;;31.20;91.60;;;;;;5036856;28;20512;-61
2022/07/30 11:19:23;;;;;;;0.50;0.50;;;31.30;92.40;;;;;;5022364;28;20442;-61
2022/07/30 11:22:23;;;;;;;0.60;0.60;;;31.20;90.70;;;;;;5022060;28;20770;-61
2022/07/30 11:24:50;;;;;;;0.63;0.63;;;30.90;92.30;;;;;;5041712;28;21015;-62
2022/07/30 11:27:49;;;;;;;0.52;0.52;;;31.00;91.50;;;;;;5025838;28;20435;-61
2022/07/30 11:30:15;;;;;;;0.50;0.50;;;31.00;90.60;;;;;;5022123;28;20936;-60
2022/07/30 11:32:45;;;;;;;0.50;0.50;;;30.80;91.00;;;;;;5014732;28;20435;-61
2022/07/30 11:35:30;;;;;;;0.50;0.50;;;30.60;90.70;;;;;;5018375;28;20920;-61
2022/07/30 11:38:22;;;;;;;0.50;0.50;;;30.70;92.20;;;;;;5022872;28;20982;-61
2022/07/30 11:40:48;;;;;;;0.70;0.63;;;30.50;91.50;;;;;;5021387;28;20494;-61
2022/07/30 11:43:28;;;;;;;0.40;0.40;;;30.40;90.80;;;;;;5019771;28;20428;-61
2022/07/30 11:46:09;;;;;;;0.50;0.50;;;30.40;90.90;;;;;;5029377;28;20532;-60
2022/07/30 11:48:42;;;;;;;0.57;0.57;;;30.10;90.60;;;;;;5022901;28;20500;-61
2022/07/30 11:51:09;;;;;;;0.45;0.45;;;30.20;92.10;;;;;;5018865;28;20434;-61
2022/07/30 11:53:36;;;;;;;0.57;0.57;;;30.30;92.00;;;;;;5018247;28;20432;-62
2022/07/30 11:56:05;;;;;;;0.60;0.60;;;30.20;91.30;;;;;;5013830;28;20497;-62
2022/07/30 11:58:39;;;;;;;0.50;0.50;;;30.30;90.90;;;;;;5030206;28;21003;-61
2022/07/30 12:01:12;;;;;;;0.65;0.65;;;30.60;90.90;;;;;;5017909;28;20437;-61
2022/07/30 12:03:40;;;;;;;0.52;0.45;;;30.70;89.20;;;;;;5016183;28;21182;-61
2022/07/30 12:06:12;;;;;;;0.60;0.60;;;30.60;91.00;;;;;;5023183;28;20435;-60
2022/07/30 12:08:41;;;;;;;0.50;0.50;;;30.80;91.10;;;;;;5022095;28;20439;-61
2022/07/30 12:11:09;;;;;;;0.60;0.60;;;31.00;90.10;;;;;;5017737;28;20457;-60
2022/07/30 12:13:37;;;;;;;0.50;0.50;;;31.00;87.90;;;;;;5019813;28;20489;-61
2022/07/30 12:16:14;;;;;;;0.55;0.55;;;30.70;89.40;;;;;;5023070;28;20493;-60
2022/07/30 12:18:41;;;;;;;0.43;0.43;;;30.30;89.30;;;;;;5022360;28;20475;-60
2022/07/30 12:21:16;;;;;;;0.50;0.50;;;30.00;89.10;;;;;;5014360;28;20445;-62
2022/07/30 12:24:02;;;;;;;0.40;0.40;;;30.00;90.10;;;;;;5013906;28;20527;-60
2022/07/30 12:26:31;;;;;;;0.55;0.55;;;30.50;90.50;;;;;;5020921;28;20430;-61
2022/07/30 12:29:02;;;;;;;0.60;0.60;;;30.70;88.20;;;;;;5024475;28;21107;-60
2022/07/30 12:31:29;;;;;;;0.50;0.50;;;30.70;89.70;;;;;;5019193;28;20537;-61
2022/07/30 12:33:55;;;;;;;0.40;0.40;;;30.90;88.20;;;;;;5033748;28;20437;-61
2022/07/30 12:36:35;;;;;;;0.50;0.50;;;30.90;87.40;;;;;;5017145;28;20468;-62
2022/07/30 12:39:03;;;;;;;0.50;0.50;;;30.90;89.60;;;;;;5015495;28;20430;-61
2022/07/30 12:41:59;;;;;;;0.40;0.40;;;31.10;88.50;;;;;;5021872;28;20810;-63
2022/07/30 12:44:45;;;;;;;0.57;0.57;;;31.30;91.20;;;;;;4993095;28;21082;-61
2022/07/30 12:47:28;;;;;;;0.70;0.70;;;31.60;89.80;;;;;;4993607;28;20429;-61
2022/07/30 12:49:59;;;;;;;0.40;0.40;;;31.50;87.90;;;;;;5002923;28;20946;-63
2022/07/30 12:52:32;;;;;;;0.50;0.50;;;31.30;87.80;;;;;;4995697;28;20534;-61
2022/07/30 12:55:07;;;;;;;0.60;0.60;;;31.20;86.30;;;;;;4992702;28;20446;-61
2022/07/30 12:57:54;;;;;;;0.60;0.60;;;30.90;87.40;;;;;;4991961;28;20580;-62
2022/07/30 13:00:51;;;;;;;0.80;0.80;;;30.90;88.00;;;;;;4996768;28;20430;-61
2022/07/30 13:03:23;;;;;;;0.50;0.50;;;31.10;87.60;;;;;;4999345;28;20535;-61
2022/07/30 13:05:52;;;;;;;0.50;0.50;;;31.20;85.60;;;;;;4991802;28;20960;-62
2022/07/30 13:08:50;;;;;;;0.63;0.63;;;31.20;87.10;;;;;;4986861;28;20429;-61